sensor_id;sensor_type;location;lat;lon;timestamp;pressure;altitude;pressure_sealevel;temperature
24714;BMP280;12820;51.580;5.010;2022-12-20T00:03:25;101378.66;;;10.22
24714;BMP280;12820;51.580;5.010;2022-12-20T00:08:28;101374.44;;;10.28
24714;BMP280;12820;51.580;5.010;2022-12-20T00:13:31;101381.94;;;10.35
24714;BMP280;12820;51.580;5.010;2022-12-20T00:18:33;101359.28;;;10.41
24714;BMP280;12820;51.580;5.010;2022-12-20T00:23:36;101345.88;;;10.47
24714;BMP280;12820;51.580;5.010;2022-12-20T00:28:40;101345.84;;;10.52
24714;BMP280;12820;51.580;5.010;2022-12-20T00:33:45;101360.03;;;10.58
24714;BMP280;12820;51.580;5.010;2022-12-20T00:38:49;101354.97;;;10.64
24714;BMP280;12820;51.580;5.010;2022-12-20T00:43:56;101347.38;;;10.69
24714;BMP280;12820;51.580;5.010;2022-12-20T00:48:58;101346.50;;;10.75
24714;BMP280;12820;51.580;5.010;2022-12-20T00:54:01;101352.34;;;10.78
24714;BMP280;12820;51.580;5.010;2022-12-20T00:59:03;101345.59;;;10.82
24714;BMP280;12820;51.580;5.010;2022-12-20T01:04:05;101348.13;;;10.83
24714;BMP280;12820;51.580;5.010;2022-12-20T01:09:09;101368.22;;;10.87
24714;BMP280;12820;51.580;5.010;2022-12-20T01:14:14;101357.31;;;10.87
24714;BMP280;12820;51.580;5.010;2022-12-20T01:19:17;101347.25;;;10.87
24714;BMP280;12820;51.580;5.010;2022-12-20T01:24:19;101339.75;;;10.85
24714;BMP280;12820;51.580;5.010;2022-12-20T01:29:21;101336.34;;;10.86
24714;BMP280;12820;51.580;5.010;2022-12-20T01:34:23;101339.72;;;10.87
24714;BMP280;12820;51.580;5.010;2022-12-20T01:39:25;101310.41;;;10.86
24714;BMP280;12820;51.580;5.010;2022-12-20T01:49:31;101307.03;;;10.87
24714;BMP280;12820;51.580;5.010;2022-12-20T01:54:42;101302.00;;;10.87
24714;BMP280;12820;51.580;5.010;2022-12-20T01:59:47;101293.59;;;10.91
24714;BMP280;12820;51.580;5.010;2022-12-20T02:04:49;101288.56;;;10.88
24714;BMP280;12820;51.580;5.010;2022-12-20T02:09:53;101278.50;;;10.88
24714;BMP280;12820;51.580;5.010;2022-12-20T02:30:42;101263.50;;;10.79
24714;BMP280;12820;51.580;5.010;2022-12-20T02:35:46;101261.84;;;10.78
24714;BMP280;12820;51.580;5.010;2022-12-20T02:40:54;101266.06;;;10.75
24714;BMP280;12820;51.580;5.010;2022-12-20T02:45:58;101263.56;;;10.73
24714;BMP280;12820;51.580;5.010;2022-12-20T02:51:02;101259.38;;;10.72
24714;BMP280;12820;51.580;5.010;2022-12-20T02:56:12;101258.56;;;10.70
24714;BMP280;12820;51.580;5.010;2022-12-20T03:01:20;101251.03;;;10.70
24714;BMP280;12820;51.580;5.010;2022-12-20T03:06:24;101256.03;;;10.72
24714;BMP280;12820;51.580;5.010;2022-12-20T03:11:27;101241.78;;;10.72
24714;BMP280;12820;51.580;5.010;2022-12-20T03:16:30;101252.66;;;10.74
24714;BMP280;12820;51.580;5.010;2022-12-20T03:21:32;101245.94;;;10.75
24714;BMP280;12820;51.580;5.010;2022-12-20T03:26:34;101256.84;;;10.75
24714;BMP280;12820;51.580;5.010;2022-12-20T03:31:37;101238.41;;;10.76
24714;BMP280;12820;51.580;5.010;2022-12-20T03:36:39;101239.22;;;10.77
24714;BMP280;12820;51.580;5.010;2022-12-20T03:41:41;101232.50;;;10.79
24714;BMP280;12820;51.580;5.010;2022-12-20T03:46:45;101247.56;;;10.82
24714;BMP280;12820;51.580;5.010;2022-12-20T03:51:48;101260.13;;;10.86
24714;BMP280;12820;51.580;5.010;2022-12-20T03:56:50;101245.81;;;10.88
24714;BMP280;12820;51.580;5.010;2022-12-20T04:01:52;101243.28;;;10.92
24714;BMP280;12820;51.580;5.010;2022-12-20T04:06:55;101247.41;;;10.98
24714;BMP280;12820;51.580;5.010;2022-12-20T04:11:57;101247.38;;;11.02
24714;BMP280;12820;51.580;5.010;2022-12-20T04:17:02;101250.72;;;11.04
24714;BMP280;12820;51.580;5.010;2022-12-20T04:22:05;101251.50;;;11.07
24714;BMP280;12820;51.580;5.010;2022-12-20T04:27:23;101245.59;;;11.11
24714;BMP280;12820;51.580;5.010;2022-12-20T04:32:28;101236.38;;;11.13
24714;BMP280;12820;51.580;5.010;2022-12-20T04:37:30;101234.63;;;11.18
24714;BMP280;12820;51.580;5.010;2022-12-20T04:42:33;101231.25;;;11.22
24714;BMP280;12820;51.580;5.010;2022-12-20T04:47:36;101231.19;;;11.25
24714;BMP280;12820;51.580;5.010;2022-12-20T04:52:39;101201.03;;;11.28
24714;BMP280;12820;51.580;5.010;2022-12-20T04:58:01;101210.19;;;11.32
24714;BMP280;12820;51.580;5.010;2022-12-20T05:03:11;101195.88;;;11.34
24714;BMP280;12820;51.580;5.010;2022-12-20T05:08:14;101188.34;;;11.35
24714;BMP280;12820;51.580;5.010;2022-12-20T05:13:17;101192.53;;;11.37
24714;BMP280;12820;51.580;5.010;2022-12-20T05:18:21;101178.22;;;11.39
24714;BMP280;12820;51.580;5.010;2022-12-20T05:23:30;101164.72;;;11.43
24714;BMP280;12820;51.580;5.010;2022-12-20T05:28:56;101159.69;;;11.45
24714;BMP280;12820;51.580;5.010;2022-12-20T05:34:00;101154.66;;;11.48
24714;BMP280;12820;51.580;5.010;2022-12-20T05:39:06;101149.56;;;11.49
24714;BMP280;12820;51.580;5.010;2022-12-20T05:44:12;101136.13;;;11.52
24714;BMP280;12820;51.580;5.010;2022-12-20T05:49:18;101148.66;;;11.53
24714;BMP280;12820;51.580;5.010;2022-12-20T05:54:20;101120.13;;;11.54
24714;BMP280;12820;51.580;5.010;2022-12-20T05:59:31;101105.88;;;11.54
24714;BMP280;12820;51.580;5.010;2022-12-20T06:04:34;101113.38;;;11.57
24714;BMP280;12820;51.580;5.010;2022-12-20T06:09:42;101110.84;;;11.57
24714;BMP280;12820;51.580;5.010;2022-12-20T06:14:48;101099.13;;;11.56
24714;BMP280;12820;51.580;5.010;2022-12-20T06:19:51;101114.25;;;11.56
24714;BMP280;12820;51.580;5.010;2022-12-20T06:24:53;101114.25;;;11.54
24714;BMP280;12820;51.580;5.010;2022-12-20T06:30:01;101115.16;;;11.51
24714;BMP280;12820;51.580;5.010;2022-12-20T06:35:15;101125.25;;;11.48
24714;BMP280;12820;51.580;5.010;2022-12-20T06:40:17;101122.78;;;11.45
24714;BMP280;12820;51.580;5.010;2022-12-20T06:45:20;101107.69;;;11.45
24714;BMP280;12820;51.580;5.010;2022-12-20T06:50:23;101116.13;;;11.43
24714;BMP280;12820;51.580;5.010;2022-12-20T06:55:25;101117.78;;;11.42
24714;BMP280;12820;51.580;5.010;2022-12-20T07:00:27;101122.00;;;11.40
24714;BMP280;12820;51.580;5.010;2022-12-20T07:05:29;101117.81;;;11.41
24714;BMP280;12820;51.580;5.010;2022-12-20T07:10:36;101117.81;;;11.41
24714;BMP280;12820;51.580;5.010;2022-12-20T07:15:38;101117.81;;;11.41
24714;BMP280;12820;51.580;5.010;2022-12-20T07:20:40;101121.16;;;11.43
24714;BMP280;12820;51.580;5.010;2022-12-20T07:25:43;101118.59;;;11.44
24714;BMP280;12820;51.580;5.010;2022-12-20T07:30:45;101132.78;;;11.48
24714;BMP280;12820;51.580;5.010;2022-12-20T07:35:47;101131.09;;;11.49
24714;BMP280;12820;51.580;5.010;2022-12-20T07:40:55;101142.00;;;11.49
24714;BMP280;12820;51.580;5.010;2022-12-20T07:45:58;101147.03;;;11.51
24714;BMP280;12820;51.580;5.010;2022-12-20T07:51:05;101143.69;;;11.52
24714;BMP280;12820;51.580;5.010;2022-12-20T07:56:09;101142.00;;;11.52
24714;BMP280;12820;51.580;5.010;2022-12-20T08:01:12;101150.34;;;11.54
24714;BMP280;12820;51.580;5.010;2022-12-20T08:06:16;101146.13;;;11.56
24714;BMP280;12820;51.580;5.010;2022-12-20T08:11:19;101145.28;;;11.57
24714;BMP280;12820;51.580;5.010;2022-12-20T08:16:22;101151.94;;;11.59
24714;BMP280;12820;51.580;5.010;2022-12-20T08:21:24;101149.44;;;11.59
24714;BMP280;12820;51.580;5.010;2022-12-20T08:26:26;101145.22;;;11.60
24714;BMP280;12820;51.580;5.010;2022-12-20T08:31:29;101145.22;;;11.60
24714;BMP280;12820;51.580;5.010;2022-12-20T08:36:31;101144.41;;;11.58
24714;BMP280;12820;51.580;5.010;2022-12-20T08:41:34;101138.53;;;11.59
24714;BMP280;12820;51.580;5.010;2022-12-20T08:46:37;101126.78;;;11.58
24714;BMP280;12820;51.580;5.010;2022-12-20T08:51:40;101128.47;;;11.59
24714;BMP280;12820;51.580;5.010;2022-12-20T08:56:42;101125.94;;;11.60
24714;BMP280;12820;51.580;5.010;2022-12-20T09:01:45;101123.41;;;11.62
24714;BMP280;12820;51.580;5.010;2022-12-20T09:06:47;101134.25;;;11.64
24714;BMP280;12820;51.580;5.010;2022-12-20T09:11:49;101117.47;;;11.64
24714;BMP280;12820;51.580;5.010;2022-12-20T09:16:51;101127.53;;;11.66
24714;BMP280;12820;51.580;5.010;2022-12-20T09:21:54;101135.88;;;11.68
24714;BMP280;12820;51.580;5.010;2022-12-20T09:26:56;101127.47;;;11.70
24714;BMP280;12820;51.580;5.010;2022-12-20T09:31:58;101123.22;;;11.73
24714;BMP280;12820;51.580;5.010;2022-12-20T09:37:00;101116.47;;;11.75
24714;BMP280;12820;51.580;5.010;2022-12-20T09:42:06;101124.00;;;11.77
24714;BMP280;12820;51.580;5.010;2022-12-20T09:47:14;101127.31;;;11.80
24714;BMP280;12820;51.580;5.010;2022-12-20T10:02:49;101130.56;;;11.87
24714;BMP280;12820;51.580;5.010;2022-12-20T10:08:28;101135.53;;;11.92
24714;BMP280;12820;51.580;5.010;2022-12-20T10:19:02;101122.84;;;11.97
24714;BMP280;12820;51.580;5.010;2022-12-20T10:24:32;101128.63;;;12.03
24714;BMP280;12820;51.580;5.010;2022-12-20T10:29:35;101125.22;;;12.06
24714;BMP280;12820;51.580;5.010;2022-12-20T10:34:37;101122.69;;;12.08
24714;BMP280;12820;51.580;5.010;2022-12-20T10:39:49;101125.16;;;12.11
24714;BMP280;12820;51.580;5.010;2022-12-20T10:44:53;101118.41;;;12.13
24714;BMP280;12820;51.580;5.010;2022-12-20T10:55:43;101106.59;;;12.15
24714;BMP280;12820;51.580;5.010;2022-12-20T11:00:46;101101.59;;;12.14
24714;BMP280;12820;51.580;5.010;2022-12-20T11:06:01;101101.59;;;12.14
24714;BMP280;12820;51.580;5.010;2022-12-20T11:11:17;101100.75;;;12.13
24714;BMP280;12820;51.580;5.010;2022-12-20T11:16:25;101091.47;;;12.15
24714;BMP280;12820;51.580;5.010;2022-12-20T11:22:06;101090.63;;;12.16
24714;BMP280;12820;51.580;5.010;2022-12-20T11:27:16;101090.56;;;12.21
24714;BMP280;12820;51.580;5.010;2022-12-20T11:32:40;101088.88;;;12.21
24714;BMP280;12820;51.580;5.010;2022-12-20T11:43:16;101077.13;;;12.20
24714;BMP280;12820;51.580;5.010;2022-12-20T11:53:53;101058.63;;;12.21
24714;BMP280;12820;51.580;5.010;2022-12-20T11:59:02;101053.53;;;12.24
24714;BMP280;12820;51.580;5.010;2022-12-20T12:04:19;101054.31;;;12.27
24714;BMP280;12820;51.580;5.010;2022-12-20T12:09:45;101052.59;;;12.29
24714;BMP280;12820;51.580;5.010;2022-12-20T12:20:27;101055.09;;;12.31
24714;BMP280;12820;51.580;5.010;2022-12-20T12:25:32;101043.31;;;12.33
24714;BMP280;12820;51.580;5.010;2022-12-20T12:30:37;101045.78;;;12.34
24714;BMP280;12820;51.580;5.010;2022-12-20T12:46:10;101040.69;;;12.37
24714;BMP280;12820;51.580;5.010;2022-12-20T12:51:21;101041.56;;;12.35
24714;BMP280;12820;51.580;5.010;2022-12-20T13:17:46;101044.91;;;12.37
24714;BMP280;12820;51.580;5.010;2022-12-20T13:23:11;101042.38;;;12.37
24714;BMP280;12820;51.580;5.010;2022-12-20T13:33:21;101033.19;;;12.34
24714;BMP280;12820;51.580;5.010;2022-12-20T13:43:47;101038.22;;;12.34
24714;BMP280;12820;51.580;5.010;2022-12-20T13:48:52;101040.72;;;12.34
24714;BMP280;12820;51.580;5.010;2022-12-20T13:54:00;101034.00;;;12.35
24714;BMP280;12820;51.580;5.010;2022-12-20T13:59:12;101030.66;;;12.34
24714;BMP280;12820;51.580;5.010;2022-12-20T14:04:17;101032.38;;;12.32
24714;BMP280;12820;51.580;5.010;2022-12-20T14:09:34;101033.22;;;12.33
24714;BMP280;12820;51.580;5.010;2022-12-20T14:14:41;101044.09;;;12.33
24714;BMP280;12820;51.580;5.010;2022-12-20T14:19:44;101033.22;;;12.33
24714;BMP280;12820;51.580;5.010;2022-12-20T14:24:47;101021.47;;;12.32
24714;BMP280;12820;51.580;5.010;2022-12-20T14:29:49;101026.50;;;12.32
24714;BMP280;12820;51.580;5.010;2022-12-20T14:34:53;101029.06;;;12.30
24714;BMP280;12820;51.580;5.010;2022-12-20T14:40:03;101017.34;;;12.28
24714;BMP280;12820;51.580;5.010;2022-12-20T14:45:19;101013.16;;;12.27
24714;BMP280;12820;51.580;5.010;2022-12-20T14:50:33;101029.13;;;12.26
24714;BMP280;12820;51.580;5.010;2022-12-20T14:55:38;101028.31;;;12.24
24714;BMP280;12820;51.580;5.010;2022-12-20T15:06:33;101000.69;;;12.20
24714;BMP280;12820;51.580;5.010;2022-12-20T15:11:37;101008.28;;;12.18
24714;BMP280;12820;51.580;5.010;2022-12-20T15:16:47;101005.81;;;12.15
24714;BMP280;12820;51.580;5.010;2022-12-20T15:21:49;101015.09;;;12.13
24714;BMP280;12820;51.580;5.010;2022-12-20T15:26:53;101015.09;;;12.13
24714;BMP280;12820;51.580;5.010;2022-12-20T15:32:04;101007.56;;;12.12
24714;BMP280;12820;51.580;5.010;2022-12-20T15:37:11;101006.66;;;12.14
24714;BMP280;12820;51.580;5.010;2022-12-20T15:42:20;101020.16;;;12.13
24714;BMP280;12820;51.580;5.010;2022-12-20T15:47:23;101021.00;;;12.12
24714;BMP280;12820;51.580;5.010;2022-12-20T15:52:26;101027.72;;;12.10
24714;BMP280;12820;51.580;5.010;2022-12-20T15:57:28;101033.66;;;12.08
24714;BMP280;12820;51.580;5.010;2022-12-20T16:02:31;101028.66;;;12.07
24714;BMP280;12820;51.580;5.010;2022-12-20T16:07:34;101025.34;;;12.05
24714;BMP280;12820;51.580;5.010;2022-12-20T16:12:36;101029.56;;;12.04
24714;BMP280;12820;51.580;5.010;2022-12-20T16:17:39;101022.00;;;12.03
24714;BMP280;12820;51.580;5.010;2022-12-20T16:22:41;101026.22;;;12.01
24714;BMP280;12820;51.580;5.010;2022-12-20T16:27:44;101028.75;;;12.01
24714;BMP280;12820;51.580;5.010;2022-12-20T16:32:46;101027.91;;;12.00
24714;BMP280;12820;51.580;5.010;2022-12-20T16:37:48;101020.41;;;11.99
24714;BMP280;12820;51.580;5.010;2022-12-20T16:42:50;101015.38;;;11.99
24714;BMP280;12820;51.580;5.010;2022-12-20T16:47:53;101003.63;;;11.96
24714;BMP280;12820;51.580;5.010;2022-12-20T16:52:55;101006.97;;;11.97
24714;BMP280;12820;51.580;5.010;2022-12-20T16:57:57;101006.97;;;11.97
24714;BMP280;12820;51.580;5.010;2022-12-20T17:03:00;101006.19;;;11.95
24714;BMP280;12820;51.580;5.010;2022-12-20T17:08:03;101005.38;;;11.93
24714;BMP280;12820;51.580;5.010;2022-12-20T17:13:05;101017.97;;;11.94
24714;BMP280;12820;51.580;5.010;2022-12-20T17:18:09;101000.38;;;11.91
24714;BMP280;12820;51.580;5.010;2022-12-20T17:23:12;101013.78;;;11.92
24714;BMP280;12820;51.580;5.010;2022-12-20T17:28:16;101020.50;;;11.93
24714;BMP280;12820;51.580;5.010;2022-12-20T17:33:18;101016.31;;;11.92
24714;BMP280;12820;51.580;5.010;2022-12-20T17:38:21;101028.06;;;11.91
24714;BMP280;12820;51.580;5.010;2022-12-20T17:43:23;101028.06;;;11.91
24714;BMP280;12820;51.580;5.010;2022-12-20T17:48:25;101041.50;;;11.92
24714;BMP280;12820;51.580;5.010;2022-12-20T17:53:34;101042.34;;;11.91
24714;BMP280;12820;51.580;5.010;2022-12-20T17:58:37;101044.00;;;11.92
24714;BMP280;12820;51.580;5.010;2022-12-20T18:03:39;101032.25;;;11.91
24714;BMP280;12820;51.580;5.010;2022-12-20T18:09:05;101035.66;;;11.90
24714;BMP280;12820;51.580;5.010;2022-12-20T18:14:09;101027.28;;;11.90
24714;BMP280;12820;51.580;5.010;2022-12-20T18:19:16;101038.13;;;11.91
24714;BMP280;12820;51.580;5.010;2022-12-20T18:24:18;101030.63;;;11.90
24714;BMP280;12820;51.580;5.010;2022-12-20T18:29:22;101034.00;;;11.89
24714;BMP280;12820;51.580;5.010;2022-12-20T18:34:24;101025.59;;;11.90
24714;BMP280;12820;51.580;5.010;2022-12-20T18:39:26;101022.25;;;11.90
24714;BMP280;12820;51.580;5.010;2022-12-20T18:44:29;101037.34;;;11.90
24714;BMP280;12820;51.580;5.010;2022-12-20T18:49:36;101024.75;;;11.90
24714;BMP280;12820;51.580;5.010;2022-12-20T18:54:38;101028.13;;;11.90
24714;BMP280;12820;51.580;5.010;2022-12-20T18:59:40;101040.69;;;11.90
24714;BMP280;12820;51.580;5.010;2022-12-20T19:04:42;101038.19;;;11.89
24714;BMP280;12820;51.580;5.010;2022-12-20T19:09:45;101040.69;;;11.90
24714;BMP280;12820;51.580;5.010;2022-12-20T19:14:47;101034.84;;;11.90
24714;BMP280;12820;51.580;5.010;2022-12-20T19:19:49;101040.69;;;11.90
24714;BMP280;12820;51.580;5.010;2022-12-20T19:24:51;101028.97;;;11.89
24714;BMP280;12820;51.580;5.010;2022-12-20T19:29:54;101023.94;;;11.89
24714;BMP280;12820;51.580;5.010;2022-12-20T19:34:56;101038.19;;;11.89
24714;BMP280;12820;51.580;5.010;2022-12-20T19:39:58;101039.03;;;11.89
24714;BMP280;12820;51.580;5.010;2022-12-20T19:45:00;101044.06;;;11.89
24714;BMP280;12820;51.580;5.010;2022-12-20T19:50:03;101047.44;;;11.88
24714;BMP280;12820;51.580;5.010;2022-12-20T19:55:07;101057.50;;;11.88
24714;BMP280;12820;51.580;5.010;2022-12-20T20:00:09;101047.44;;;11.88
24714;BMP280;12820;51.580;5.010;2022-12-20T20:05:14;101045.78;;;11.87
24714;BMP280;12820;51.580;5.010;2022-12-20T20:10:17;101035.69;;;11.87
24714;BMP280;12820;51.580;5.010;2022-12-20T20:15:19;101048.28;;;11.87
24714;BMP280;12820;51.580;5.010;2022-12-20T20:20:21;101055.84;;;11.87
24714;BMP280;12820;51.580;5.010;2022-12-20T20:25:23;101066.75;;;11.86
24714;BMP280;12820;51.580;5.010;2022-12-20T20:30:25;101070.13;;;11.87
24714;BMP280;12820;51.580;5.010;2022-12-20T20:35:27;101069.28;;;11.86
24714;BMP280;12820;51.580;5.010;2022-12-20T20:40:29;101073.53;;;11.86
24714;BMP280;12820;51.580;5.010;2022-12-20T20:45:32;101081.09;;;11.84
24714;BMP280;12820;51.580;5.010;2022-12-20T20:50:34;101083.63;;;11.83
24714;BMP280;12820;51.580;5.010;2022-12-20T20:55:36;101081.91;;;11.85
24714;BMP280;12820;51.580;5.010;2022-12-20T21:00:38;101070.19;;;11.82
24714;BMP280;12820;51.580;5.010;2022-12-20T21:05:42;101072.72;;;11.82
24714;BMP280;12820;51.580;5.010;2022-12-20T21:11:05;101077.81;;;11.79
24714;BMP280;12820;51.580;5.010;2022-12-20T21:16:10;101076.13;;;11.78
24714;BMP280;12820;51.580;5.010;2022-12-20T21:21:13;101092.94;;;11.76
24714;BMP280;12820;51.580;5.010;2022-12-20T21:26:17;101091.31;;;11.74
24714;BMP280;12820;51.580;5.010;2022-12-20T21:31:19;101097.19;;;11.73
24714;BMP280;12820;51.580;5.010;2022-12-20T21:36:22;101083.81;;;11.71
24714;BMP280;12820;51.580;5.010;2022-12-20T21:41:27;101088.88;;;11.70
24714;BMP280;12820;51.580;5.010;2022-12-20T21:46:30;101085.56;;;11.66
24714;BMP280;12820;51.580;5.010;2022-12-20T21:51:33;101088.09;;;11.66
24714;BMP280;12820;51.580;5.010;2022-12-20T21:56:36;101103.19;;;11.65
24714;BMP280;12820;51.580;5.010;2022-12-20T22:01:38;101099.88;;;11.63
24714;BMP280;12820;51.580;5.010;2022-12-20T22:06:41;101105.78;;;11.62
24714;BMP280;12820;51.580;5.010;2022-12-20T22:11:46;101101.59;;;11.61
24714;BMP280;12820;51.580;5.010;2022-12-20T22:16:48;101103.28;;;11.59
24714;BMP280;12820;51.580;5.010;2022-12-20T22:21:51;101107.47;;;11.58
24714;BMP280;12820;51.580;5.010;2022-12-20T22:26:59;101105.00;;;11.57
24714;BMP280;12820;51.580;5.010;2022-12-20T22:32:04;101108.38;;;11.56
24714;BMP280;12820;51.580;5.010;2022-12-20T22:37:07;101115.94;;;11.54
24714;BMP280;12820;51.580;5.010;2022-12-20T22:42:09;101106.72;;;11.54
24714;BMP280;12820;51.580;5.010;2022-12-20T22:47:11;101109.28;;;11.52
24714;BMP280;12820;51.580;5.010;2022-12-20T22:52:13;101121.84;;;11.52
24714;BMP280;12820;51.580;5.010;2022-12-20T22:57:15;101114.31;;;11.51
24714;BMP280;12820;51.580;5.010;2022-12-20T23:02:17;101117.69;;;11.48
24714;BMP280;12820;51.580;5.010;2022-12-20T23:07:20;101116.06;;;11.47
24714;BMP280;12820;51.580;5.010;2022-12-20T23:12:23;101115.22;;;11.47
24714;BMP280;12820;51.580;5.010;2022-12-20T23:17:43;101115.22;;;11.45
24714;BMP280;12820;51.580;5.010;2022-12-20T23:22:45;101117.75;;;11.44
24714;BMP280;12820;51.580;5.010;2022-12-20T23:27:48;101118.63;;;11.43
24714;BMP280;12820;51.580;5.010;2022-12-20T23:32:51;101124.50;;;11.42
24714;BMP280;12820;51.580;5.010;2022-12-20T23:37:54;101127.88;;;11.41
24714;BMP280;12820;51.580;5.010;2022-12-20T23:42:57;101120.31;;;11.39
24714;BMP280;12820;51.580;5.010;2022-12-20T23:47:59;101108.59;;;11.38
24714;BMP280;12820;51.580;5.010;2022-12-20T23:53:01;101108.59;;;11.38
24714;BMP280;12820;51.580;5.010;2022-12-20T23:58:03;101108.63;;;11.37
